TimeMST,TemperatureF,Dew PointF,Humidity,Sea Level PressureIn,VisibilityMPH,Wind Direction,Wind SpeedMPH,Gust SpeedMPH,PrecipitationIn,Events,Conditions,WindDirDegrees,DateUTC
12:12 AM,15.8,12.2,86,29.79,2.0,ESE,13.8,-,0.00,Snow,Light Snow,110,2013-02-21 07:12:00
12:24 AM,15.8,12.2,86,29.79,6.0,ESE,15.0,-,0.00,,Overcast,110,2013-02-21 07:24:00
12:53 AM,15.1,12.0,88,29.95,5.0,ESE,15.0,-,0.00,Snow,Light Snow,110,2013-02-21 07:53:00
1:04 AM,15.8,12.2,86,29.79,1.5,ESE,16.1,-,0.00,Snow,Light Snow,110,2013-02-21 08:04:00
1:08 AM,15.8,12.2,86,29.79,1.0,ESE,16.1,-,0.01,Snow,Light Snow,110,2013-02-21 08:08:00
1:11 AM,15.8,12.2,86,29.79,0.8,ESE,13.8,-,0.01,Snow,Light Snow,110,2013-02-21 08:11:00
1:24 AM,15.8,12.2,86,29.79,0.5,ESE,11.5,-,0.01,Fog-Snow,Snow,110,2013-02-21 08:24:00
1:53 AM,15.1,12.0,88,29.94,0.8,East,10.4,-,0.03,Snow,Light Snow,100,2013-02-21 08:53:00
2:03 AM,15.8,12.2,86,29.77,1.0,East,11.5,-,0.00,Snow,Light Snow,100,2013-02-21 09:03:00
2:09 AM,15.8,12.2,86,29.77,0.8,ESE,12.7,-,0.00,Snow,Light Snow,110,2013-02-21 09:09:00
2:20 AM,15.8,12.2,86,29.77,1.0,ESE,10.4,-,0.00,Snow,Light Snow,110,2013-02-21 09:20:00
2:29 AM,15.8,12.2,86,29.76,0.8,ESE,9.2,-,0.00,Snow,Light Snow,110,2013-02-21 09:29:00
2:37 AM,15.8,12.2,86,29.76,1.0,East,10.4,-,0.01,Snow,Light Snow,100,2013-02-21 09:37:00
2:44 AM,15.8,12.2,86,29.75,1.5,ESE,9.2,-,0.01,Snow,Light Snow,110,2013-02-21 09:44:00
2:53 AM,15.1,12.0,88,29.91,1.5,ESE,9.2,-,0.01,Snow,Light Snow,110,2013-02-21 09:53:00
3:05 AM,15.8,12.2,86,29.75,0.8,ESE,8.1,-,0.00,Snow,Light Snow,110,2013-02-21 10:05:00
3:14 AM,15.8,12.2,86,29.76,1.0,ESE,9.2,-,0.00,Snow,Light Snow,110,2013-02-21 10:14:00
3:39 AM,15.8,12.2,86,29.77,1.2,ESE,9.2,-,0.01,Snow,Light Snow,120,2013-02-21 10:39:00
3:53 AM,15.1,12.0,88,29.93,1.2,ESE,9.2,-,0.01,Snow,Light Snow,110,2013-02-21 10:53:00
4:32 AM,14.0,10.4,86,29.78,2.5,East,5.8,-,0.00,Snow,Light Snow,80,2013-02-21 11:32:00
4:43 AM,14.0,10.4,86,29.78,3.0,East,5.8,-,0.00,Snow,Light Snow,80,2013-02-21 11:43:00
4:51 AM,12.2,10.4,92,29.79,2.5,East,5.8,-,0.01,Snow,Light Snow,90,2013-02-21 11:51:00
4:53 AM,12.9,10.0,88,29.96,3.0,East,5.8,-,0.01,Snow,Light Snow,90,2013-02-21 11:53:00
5:21 AM,12.2,10.4,92,29.80,8.0,East,5.8,-,0.00,,Overcast,100,2013-02-21 12:21:00
5:37 AM,14.0,10.4,86,29.80,9.0,East,6.9,-,0.00,,Overcast,80,2013-02-21 12:37:00
5:45 AM,14.0,10.4,86,29.80,10.0,East,6.9,-,0.00,,Overcast,80,2013-02-21 12:45:00
5:53 AM,14.0,10.9,88,29.96,10.0,East,6.9,-,0.00,,Overcast,100,2013-02-21 12:53:00
6:07 AM,14.0,10.4,86,29.80,10.0,ESE,6.9,-,N/A,,Overcast,110,2013-02-21 13:07:00
6:17 AM,14.0,10.4,86,29.80,10.0,East,9.2,-,N/A,,Overcast,80,2013-02-21 13:17:00
6:28 AM,12.2,10.4,92,29.80,10.0,East,8.1,-,N/A,,Overcast,80,2013-02-21 13:28:00
6:53 AM,12.9,10.0,88,29.97,7.0,ENE,8.1,-,N/A,,Overcast,70,2013-02-21 13:53:00
7:46 AM,12.2,10.4,92,29.84,8.0,ENE,9.2,-,N/A,,Overcast,70,2013-02-21 14:46:00
7:53 AM,12.9,10.0,88,30.01,8.0,ENE,9.2,-,N/A,,Overcast,60,2013-02-21 14:53:00
8:42 AM,12.2,10.4,92,29.86,6.0,East,9.2,-,N/A,,Overcast,90,2013-02-21 15:42:00
8:53 AM,12.9,10.0,88,30.04,3.0,East,6.9,-,0.00,Snow,Light Snow,90,2013-02-21 15:53:00
9:02 AM,12.2,10.4,92,29.86,2.5,ENE,6.9,-,0.00,Snow,Light Snow,70,2013-02-21 16:02:00
9:29 AM,14.0,10.4,86,29.85,3.0,NE,6.9,-,0.00,,Overcast,50,2013-02-21 16:29:00
9:53 AM,14.0,10.0,84,30.02,3.0,NE,9.2,-,0.00,,Overcast,50,2013-02-21 16:53:00
10:53 AM,15.1,10.9,84,30.01,7.0,NNE,4.6,-,N/A,,Overcast,20,2013-02-21 17:53:00
11:22 AM,15.8,10.4,79,29.83,5.0,North,9.2,-,0.00,Snow,Light Snow,360,2013-02-21 18:22:00
11:35 AM,15.8,10.4,79,29.83,2.0,North,9.2,-,0.00,Snow,Light Snow,350,2013-02-21 18:35:00
11:53 AM,16.0,10.9,81,29.99,1.8,North,11.5,-,0.00,Snow,Light Snow,350,2013-02-21 18:53:00
11:59 AM,17.6,10.4,73,29.82,2.0,North,11.5,-,0.00,Snow,Light Snow,350,2013-02-21 18:59:00
12:14 PM,17.6,10.4,73,29.81,3.0,NNW,13.8,-,0.00,Snow,Light Snow,340,2013-02-21 19:14:00
12:53 PM,18.0,12.0,78,29.96,10.0,NNW,13.8,-,0.00,,Overcast,340,2013-02-21 19:53:00
1:48 PM,17.6,12.2,79,29.79,1.8,North,15.0,-,0.00,Snow,Light Snow,360,2013-02-21 20:48:00
1:53 PM,18.0,12.9,81,29.95,1.2,North,15.0,-,0.00,Snow,Light Snow,10,2013-02-21 20:53:00
2:29 PM,17.6,12.2,79,29.80,1.0,North,13.8,-,0.00,Snow,Light Snow,10,2013-02-21 21:29:00
2:53 PM,18.0,12.9,81,29.97,1.0,NNE,11.5,-,0.00,Snow,Light Snow,20,2013-02-21 21:53:00
3:15 PM,17.6,12.2,79,29.81,1.2,NNE,12.7,-,0.00,Snow,Light Snow,20,2013-02-21 22:15:00
3:53 PM,18.0,12.9,81,29.97,1.8,NNE,12.7,-,0.00,Snow,Light Snow,20,2013-02-21 22:53:00
4:02 PM,19.4,12.2,74,29.81,3.0,NNE,12.7,-,0.00,Snow,Light Snow,20,2013-02-21 23:02:00
4:17 PM,19.4,14.0,80,29.81,3.0,NNE,10.4,-,0.00,Snow,Light Snow,30,2013-02-21 23:17:00
4:24 PM,19.4,14.0,80,29.81,2.5,NNE,13.8,-,0.00,Snow,Light Snow,20,2013-02-21 23:24:00
4:35 PM,19.4,14.0,80,29.81,3.0,NNE,11.5,-,0.00,Snow,Light Snow,20,2013-02-21 23:35:00
4:53 PM,19.0,14.0,81,29.98,3.0,NNE,10.4,-,0.00,Snow,Light Snow,20,2013-02-21 23:53:00
5:07 PM,17.6,14.0,86,29.82,2.5,NNE,10.4,-,0.00,Snow,Light Snow,20,2013-02-22 00:07:00
5:22 PM,17.6,14.0,86,29.82,3.0,NNE,10.4,-,0.00,Snow,Light Snow,30,2013-02-22 00:22:00
5:53 PM,18.0,12.9,81,30.00,4.0,NNE,9.2,-,0.00,Snow,Light Snow,20,2013-02-22 00:53:00
6:53 PM,16.0,12.9,88,30.02,6.0,North,6.9,-,0.00,Snow,Light Snow,350,2013-02-22 01:53:00
8:09 PM,17.6,14.0,86,29.85,2.5,NNW,5.8,-,0.00,Snow,Light Snow,330,2013-02-22 03:09:00
8:39 PM,17.6,12.2,79,29.86,2.0,NNW,6.9,-,0.00,Snow,Light Snow,340,2013-02-22 03:39:00
8:53 PM,17.1,12.9,84,30.04,2.0,North,5.8,-,0.00,Snow,Light Snow,350,2013-02-22 03:53:00
9:23 PM,15.8,14.0,93,29.87,1.8,Calm,Calm,-,0.00,Snow,Light Snow,0,2013-02-22 04:23:00
9:37 PM,15.8,12.2,86,29.87,2.5,Calm,Calm,-,0.00,Snow,Light Snow,0,2013-02-22 04:37:00
9:53 PM,14.0,10.9,88,30.06,3.0,Calm,Calm,-,0.00,Snow,Light Snow,0,2013-02-22 04:53:00
10:01 PM,15.8,12.2,86,29.87,2.5,Calm,Calm,-,0.01,Snow,Light Snow,0,2013-02-22 05:01:00
10:10 PM,12.2,10.4,92,29.86,5.0,Calm,Calm,-,0.01,,Overcast,0,2013-02-22 05:10:00
10:25 PM,10.4,6.8,85,29.86,5.0,Calm,Calm,-,0.01,,Overcast,0,2013-02-22 05:25:00
10:29 PM,10.4,6.8,85,29.86,5.0,Calm,Calm,-,0.01,,Overcast,0,2013-02-22 05:29:00
10:39 PM,10.4,6.8,85,29.86,2.0,Calm,Calm,-,0.01,Snow,Light Snow,0,2013-02-22 05:39:00
10:53 PM,9.0,6.1,88,30.06,2.5,Calm,Calm,-,0.01,,Overcast,0,2013-02-22 05:53:00
11:01 PM,8.6,5.0,85,29.85,1.0,Calm,Calm,-,N/A,,Overcast,0,2013-02-22 06:01:00
11:08 PM,8.6,6.8,92,29.85,0.5,Calm,Calm,-,N/A,Fog,Light Freezing Fog,0,2013-02-22 06:08:00
11:53 PM,3.9,3.0,96,30.06,0.2,NW,4.6,-,N/A,Fog,Light Freezing Fog,310,2013-02-22 06:53:00